• Join FlightAware (Why Join?)
  • Login
  • US Flag 
Trick or treat! (Boo!!) 
01:48AM EDT


 

Airport Tracker/Info


-or-


 

Live Flight TrackerFlight Track Log ✈ JZA8019 ✈ 27-Sep-2013 ✈ CYYZ - KDTW

Flight Track Log - Related Links

Times and Time Zones

All times are in EDT time to prevent confusion due to time zone crossing. See the JZA8019 flight status page for this flight to view local times or setup timezone preferences in your user account.

Time Position Orientation Groundspeed Altitude Reporting Facility
EDT Latitude Longitude Course Direction KTS MPH feet Rate Location/Type
05:24PM 43.6500 -79.6167 200° South 10 12 500  Level Toronto Center
05:25PM 43.6667 -79.5667 65° Northeast 120 138 2,100 1,440 Climbing Toronto Center
05:26PM 43.6500 -79.5167 115° Southeast 120 138 3,400 1,200 Climbing Toronto Center
05:27PM 43.6000 -79.5000 166° South 160 184 4,600 780 Climbing Toronto Center
05:28PM 43.5667 -79.5000 180° South 180 207 5,000 540 Climbing Toronto Center
05:29PM 43.5246 -80.0422 234° Southwest  Level Estimated
05:29PM 43.5000 -79.5000 180° South 210 242 5,700  Level Toronto Center
05:30PM 43.4500 -79.5333 206° Southwest 210 242 6,600 900 Climbing Toronto Center
05:31PM 43.4284 -80.0913 200° South  Level FlightAware Approximate
05:31PM 43.4167 -79.6167 241° Southwest 210 242 7,600  Level Toronto Center
05:32PM 43.3667 -79.6500 206° Southwest 210 242 8,500 900 Climbing Toronto Center
05:33PM 43.3333 -79.7167 236° Southwest 210 242 9,400 900 Climbing Toronto Center
05:34PM 43.2833 -79.7667 216° Southwest 210 242 10,300 840 Climbing Toronto Center
05:35PM 43.2500 -79.8333 236° Southwest 220 253 11,100 840 Climbing Toronto Center
05:36PM 43.2167 -79.9000 236° Southwest 220 253 12,000 840 Climbing Toronto Center
05:37PM 43.1833 -79.9833 241° Southwest 220 253 12,800 840 Climbing Toronto Center
05:38PM 43.1333 -80.0500 224° Southwest 220 253 13,700 840 Climbing Toronto Center
05:39PM 43.1000 -80.1167 236° Southwest 230 265 14,500 780 Climbing Toronto Center
05:40PM 43.0667 -80.1833 236° Southwest 230 265 15,300 660 Climbing Toronto Center
05:41PM 43.0333 -80.2500 236° Southwest 230 265 15,900 300 Climbing Toronto Center
05:42PM 43.0000 -80.3333 241° Southwest 250 288 16,000  Climbing Toronto Center
05:43PM 42.9500 -80.4000 224° Southwest 270 311 16,000  Level Toronto Center
05:44PM 42.9000 -80.5000 236° Southwest 280 322 16,000  Level Toronto Center
05:45PM 42.8553 -80.6092 241° Southwest 275 316 16,000  Level Cleveland Center
05:46PM 42.8092 -80.6964 234° Southwest 280 322 16,000  Level Cleveland Center
05:47PM 42.7639 -80.7797 234° Southwest 272 313 16,000  Level Cleveland Center
05:48PM 42.7178 -80.8622 233° Southwest 271 312 16,000  Level Cleveland Center
05:49PM 42.6950 -80.9561 252° West 262 302 16,000  Level Cleveland Center
05:51PM 42.6864 -81.0556 263° West 262 302 16,000  Level Cleveland Center
05:52PM 42.6736 -81.1719 262° West 265 305 16,000  Level Cleveland Center
05:53PM 42.6617 -81.2697 261° West 262 302 16,000  Level Cleveland Center
05:54PM 42.6514 -81.3661 262° West 258 297 16,000 -480 Level Cleveland Center
05:55PM 42.6386 -81.4675 260° West 268 308 15,100 -1,020 Descending Cleveland Center
05:56PM 42.6256 -81.5772 261° West 285 328 14,000 -1,020 Descending Cleveland Center
05:57PM 42.6119 -81.6894 261° West 295 339 13,000 -1,020 Descending Cleveland Center
05:58PM 42.5986 -81.7997 261° West 292 336 12,000 -1,020 Descending Cleveland Center
05:59PM 42.5864 -81.9061 261° West 289 333 11,000 -540 Descending Cleveland Center
06:00PM 42.5714 -82.0303 261° West 282 325 11,000  Level Cleveland Center
06:01PM 42.5586 -82.1269 260° West 267 307 11,000  Level Cleveland Center
06:01PM 42.5539 -82.1817 263° West 266 306 11,000  Level Cleveland Center
06:02PM 42.5472 -82.2247 258° West 264 304 11,000  Level Cleveland Center
06:03PM 42.5400 -82.2931 262° West 262 302 11,000  Level Cleveland Center
06:03PM 42.5353 -82.3228 258° West 264 304 11,000  Level Cleveland Center
06:04PM 42.5269 -82.3933 261° West 262 302 11,000  Level Cleveland Center
06:04PM 42.5225 -82.4206 258° West 264 304 11,000  Level Cleveland Center
06:04PM 42.5164 -82.4825 262° West 262 302 11,000  Level Cleveland Center
06:05PM 42.5106 -82.5161 257° West 260 299 11,000 -120 Level Cleveland Center
06:05PM 42.4992 -82.5794 256° West 262 302 10,900 -780 Descending Cleveland Center
06:06PM 42.4783 -82.6261 239° Southwest 263 303 10,200 -1,320 Descending Cleveland Center
06:06PM 42.4611 -82.6733 244° Southwest 282 325 9,600 -1,080 Descending Cleveland Center
06:07PM 42.4422 -82.7222 242° Southwest 280 322 9,100 -600 Descending Cleveland Center
06:08PM 42.4289 -82.7708 250° West 286 329 9,000 -600 Descending Cleveland Center
06:08PM 42.4236 -82.8214 262° West 279 321 8,500 -1,020 Descending Cleveland Center
06:09PM 42.4214 -82.8744 267° West 269 310 8,000 -1,200 Descending Cleveland Center
06:09PM 42.4164 -82.9217 262° West 270 311 7,300 -1,500 Descending Cleveland Center
06:10PM 42.4142 -82.9725 267° West 263 303 6,500 -1,500 Descending Cleveland Center
06:10PM 42.4092 -83.0181 262° West 264 304 5,800 -1,620 Descending Cleveland Center
06:11PM 42.4025 -83.0728 261° West 254 292 4,900 -1,500 Descending Cleveland Center
06:11PM 42.3942 -83.1108 253° West 255 293 4,300 -1,020 Descending Cleveland Center
06:12PM 42.3750 -83.1592 242° Southwest 227 261 3,900 -720 Descending Cleveland Center
06:12PM 42.3550 -83.2017 238° Southwest 233 268 3,600 -600 Descending Cleveland Center
06:13PM 42.3422 -83.2311 240° Southwest 219 252 3,300 -780 Descending Cleveland Center
06:13PM 42.3169 -83.2619 222° Southwest 221 254 2,800 -900 Descending Cleveland Center
06:14PM 42.2947 -83.2781 208° Southwest 214 246 2,400 -780 Descending Cleveland Center
06:14PM 42.2747 -83.3108 230° Southwest 209 241 2,000 -780 Descending Cleveland Center
06:15PM 42.2614 -83.3297 226° Southwest 146 168 1,600 -960 Descending Cleveland Center
06:15PM 42.2422 -83.3406 203° Southwest 165 190 1,000 -420 Descending Cleveland Center
06:16PM 42.2128 -83.3600 206° Southwest 156 180 900 -120 Descending Cleveland Center